Gwinn, Michigan
Current Conditions -  °F | °C
As of 10:48 AM on Monday 24 Nov 2014 (Local Time) from KSAW Reporting Station
Haze Haze  
Wind Chill: 27°   Ceiling: 800
Heat Index: 36°   Visibility: 2.5mi
Dew Point: 34°   Wind: 13mph
Humidity: 93%   Direction: 330°NNW
Pressure: 29.04"   Gusts: 23mph
Location:  46.28°N, 87.44°W
Report Text: KSAW 241548Z 33011G20KT 2 1/2SM BR OVC008 02/01 A2904
Loading
Personal Weather Stations






























Interactive Weather Map New forecast layout! Learn more

10-Day Weather Forecast

Advertisements
Track Severe Weather on mobile